Saint-Casimir, Canada
Current Conditions -  °F | °C
As of 5:00 PM on Friday 24 Oct 2014 (Local Time) from CYOY Reporting Station
Overcast Overcast  
Wind Chill: 46°   Ceiling: 9200
Heat Index: 46°   Visibility: 9mi
Dew Point: 34°   Wind: 3mph
Humidity: 62%   Direction: 140°SE
Pressure: 29.8"   Gusts: NA
Location:  46.67°N, 72.13°W
Report Text: CYOY 242100Z AUTO 14003KT 100V170 9SM OVC092 08/01 A2980 RMKSLP097
Loading
Personal Weather Stations






























Interactive Weather Map
Tropical Storm Tracking
New forecast layout! Learn more

10-Day Weather Forecast

Advertisements
Track Severe Weather on mobile